sensor_id;sensor_type;location;lat;lon;timestamp;pressure;altitude;pressure_sealevel;temperature
34310;BMP280;61664;48.112;11.662;2023-11-19T00:01:06;95554.94;;;7.69
34310;BMP280;61664;48.112;11.662;2023-11-19T00:03:33;95558.25;;;7.73
34310;BMP280;61664;48.112;11.662;2023-11-19T00:06:01;95554.41;;;7.74
34310;BMP280;61664;48.112;11.662;2023-11-19T00:08:30;95551.00;;;7.73
34310;BMP280;61664;48.112;11.662;2023-11-19T00:10:57;95533.88;;;7.74
34310;BMP280;61664;48.112;11.662;2023-11-19T00:13:25;95532.44;;;7.82
34310;BMP280;61664;48.112;11.662;2023-11-19T00:15:52;95531.16;;;7.87
34310;BMP280;61664;48.112;11.662;2023-11-19T00:18:19;95532.94;;;7.90
34310;BMP280;61664;48.112;11.662;2023-11-19T00:20:47;95506.47;;;7.86
34310;BMP280;61664;48.112;11.662;2023-11-19T00:23:14;95514.00;;;7.88
34310;BMP280;61664;48.112;11.662;2023-11-19T00:25:41;95501.72;;;7.81
34310;BMP280;61664;48.112;11.662;2023-11-19T00:28:08;95502.94;;;7.89
34310;BMP280;61664;48.112;11.662;2023-11-19T00:30:35;95494.34;;;7.85
34310;BMP280;61664;48.112;11.662;2023-11-19T00:33:02;95501.75;;;7.90
34310;BMP280;61664;48.112;11.662;2023-11-19T00:35:31;95482.41;;;7.90
34310;BMP280;61664;48.112;11.662;2023-11-19T00:37:59;95497.53;;;8.02
34310;BMP280;61664;48.112;11.662;2023-11-19T00:40:27;95488.88;;;8.11
34310;BMP280;61664;48.112;11.662;2023-11-19T00:42:56;95491.72;;;8.16
34310;BMP280;61664;48.112;11.662;2023-11-19T00:45:25;95492.31;;;8.20
34310;BMP280;61664;48.112;11.662;2023-11-19T00:47:52;95482.69;;;8.14
34310;BMP280;61664;48.112;11.662;2023-11-19T00:50:19;95481.69;;;8.20
34310;BMP280;61664;48.112;11.662;2023-11-19T00:52:46;95468.69;;;8.22
34310;BMP280;61664;48.112;11.662;2023-11-19T00:55:13;95463.34;;;8.22
34310;BMP280;61664;48.112;11.662;2023-11-19T00:57:44;95473.13;;;8.26
34310;BMP280;61664;48.112;11.662;2023-11-19T01:00:12;95473.88;;;8.26
34310;BMP280;61664;48.112;11.662;2023-11-19T01:02:46;95470.75;;;8.28
34310;BMP280;61664;48.112;11.662;2023-11-19T01:05:16;95456.28;;;8.29
34310;BMP280;61664;48.112;11.662;2023-11-19T01:07:48;95475.59;;;8.42
34310;BMP280;61664;48.112;11.662;2023-11-19T01:10:15;95472.19;;;8.41
34310;BMP280;61664;48.112;11.662;2023-11-19T01:12:42;95470.38;;;8.38
34310;BMP280;61664;48.112;11.662;2023-11-19T01:15:12;95467.88;;;8.44
34310;BMP280;61664;48.112;11.662;2023-11-19T01:17:42;95454.38;;;8.38
34310;BMP280;61664;48.112;11.662;2023-11-19T01:20:13;95458.09;;;8.41
34310;BMP280;61664;48.112;11.662;2023-11-19T01:22:40;95466.66;;;8.36
34310;BMP280;61664;48.112;11.662;2023-11-19T01:25:07;95469.63;;;8.38
34310;BMP280;61664;48.112;11.662;2023-11-19T01:27:37;95458.97;;;8.38
34310;BMP280;61664;48.112;11.662;2023-11-19T01:30:05;95455.13;;;8.39
34310;BMP280;61664;48.112;11.662;2023-11-19T01:32:32;95442.88;;;8.41
34310;BMP280;61664;48.112;11.662;2023-11-19T01:34:59;95447.78;;;8.43
34310;BMP280;61664;48.112;11.662;2023-11-19T01:37:26;95453.38;;;8.45
34310;BMP280;61664;48.112;11.662;2023-11-19T01:39:53;95433.84;;;8.39
34310;BMP280;61664;48.112;11.662;2023-11-19T01:42:23;95449.09;;;8.47
34310;BMP280;61664;48.112;11.662;2023-11-19T01:45:01;95426.16;;;8.41
34310;BMP280;61664;48.112;11.662;2023-11-19T01:47:30;95437.28;;;8.57
34310;BMP280;61664;48.112;11.662;2023-11-19T01:49:58;95438.31;;;8.60
34310;BMP280;61664;48.112;11.662;2023-11-19T01:52:27;95425.34;;;8.62
34310;BMP280;61664;48.112;11.662;2023-11-19T01:54:55;95428.28;;;8.64
34310;BMP280;61664;48.112;11.662;2023-11-19T01:57:23;95419.09;;;8.65
34310;BMP280;61664;48.112;11.662;2023-11-19T01:59:52;95421.94;;;8.71
34310;BMP280;61664;48.112;11.662;2023-11-19T02:02:19;95422.53;;;8.75
34310;BMP280;61664;48.112;11.662;2023-11-19T02:04:52;95429.94;;;8.80
34310;BMP280;61664;48.112;11.662;2023-11-19T02:07:19;95415.03;;;8.82
34310;BMP280;61664;48.112;11.662;2023-11-19T02:09:47;95412.34;;;8.82
34310;BMP280;61664;48.112;11.662;2023-11-19T02:12:15;95392.63;;;8.80
34310;BMP280;61664;48.112;11.662;2023-11-19T02:14:42;95395.47;;;8.95
34310;BMP280;61664;48.112;11.662;2023-11-19T02:17:29;95379.94;;;8.93
34310;BMP280;61664;48.112;11.662;2023-11-19T02:20:01;95373.13;;;8.92
34310;BMP280;61664;48.112;11.662;2023-11-19T02:22:28;95370.72;;;8.94
34310;BMP280;61664;48.112;11.662;2023-11-19T02:25:04;95361.75;;;8.92
34310;BMP280;61664;48.112;11.662;2023-11-19T02:27:53;95352.38;;;8.96
34310;BMP280;61664;48.112;11.662;2023-11-19T02:30:24;95365.56;;;9.00
34310;BMP280;61664;48.112;11.662;2023-11-19T02:32:59;95348.97;;;8.96
34310;BMP280;61664;48.112;11.662;2023-11-19T02:35:32;95355.03;;;9.05
34310;BMP280;61664;48.112;11.662;2023-11-19T02:38:00;95339.78;;;9.06
34310;BMP280;61664;48.112;11.662;2023-11-19T02:40:27;95336.56;;;9.11
34310;BMP280;61664;48.112;11.662;2023-11-19T02:42:57;95343.94;;;9.16
34310;BMP280;61664;48.112;11.662;2023-11-19T02:45:26;95336.22;;;9.18
34310;BMP280;61664;48.112;11.662;2023-11-19T02:47:53;95339.03;;;9.24
34310;BMP280;61664;48.112;11.662;2023-11-19T02:50:22;95329.66;;;9.37
34310;BMP280;61664;48.112;11.662;2023-11-19T02:52:55;95332.31;;;9.46
34310;BMP280;61664;48.112;11.662;2023-11-19T02:55:25;95330.97;;;9.51
34310;BMP280;61664;48.112;11.662;2023-11-19T02:57:54;95330.66;;;9.58
34310;BMP280;61664;48.112;11.662;2023-11-19T03:00:23;95312.09;;;9.64
34310;BMP280;61664;48.112;11.662;2023-11-19T03:02:51;95300.53;;;9.67
34310;BMP280;61664;48.112;11.662;2023-11-19T03:05:47;95300.94;;;9.74
34310;BMP280;61664;48.112;11.662;2023-11-19T03:08:15;95294.69;;;9.77
34310;BMP280;61664;48.112;11.662;2023-11-19T03:10:52;95301.19;;;9.85
34310;BMP280;61664;48.112;11.662;2023-11-19T03:13:19;95298.66;;;9.91
34310;BMP280;61664;48.112;11.662;2023-11-19T03:15:46;95294.78;;;9.92
34310;BMP280;61664;48.112;11.662;2023-11-19T03:18:13;95290.88;;;10.02
34310;BMP280;61664;48.112;11.662;2023-11-19T03:20:40;95296.47;;;10.04
34310;BMP280;61664;48.112;11.662;2023-11-19T03:23:07;95285.81;;;10.04
34310;BMP280;61664;48.112;11.662;2023-11-19T03:25:34;95287.13;;;10.09
34310;BMP280;61664;48.112;11.662;2023-11-19T03:28:03;95297.16;;;10.14
34310;BMP280;61664;48.112;11.662;2023-11-19T03:30:31;95291.94;;;10.19
34310;BMP280;61664;48.112;11.662;2023-11-19T03:33:04;95297.84;;;10.24
34310;BMP280;61664;48.112;11.662;2023-11-19T03:35:31;95282.72;;;10.20
34310;BMP280;61664;48.112;11.662;2023-11-19T03:38:00;95270.47;;;10.14
34310;BMP280;61664;48.112;11.662;2023-11-19T03:40:28;95285.06;;;10.28
34310;BMP280;61664;48.112;11.662;2023-11-19T03:42:56;95276.50;;;10.24
34310;BMP280;61664;48.112;11.662;2023-11-19T03:45:26;95299.28;;;10.34
34310;BMP280;61664;48.112;11.662;2023-11-19T03:47:53;95286.94;;;10.36
34310;BMP280;61664;48.112;11.662;2023-11-19T03:50:20;95292.00;;;10.34
34310;BMP280;61664;48.112;11.662;2023-11-19T03:52:49;95301.88;;;10.43
34310;BMP280;61664;48.112;11.662;2023-11-19T03:55:16;95295.22;;;10.38
34310;BMP280;61664;48.112;11.662;2023-11-19T03:57:43;95292.38;;;10.42
34310;BMP280;61664;48.112;11.662;2023-11-19T04:00:10;95291.56;;;10.50
34310;BMP280;61664;48.112;11.662;2023-11-19T04:02:37;95287.88;;;10.48
34310;BMP280;61664;48.112;11.662;2023-11-19T04:05:05;95282.81;;;10.50
34310;BMP280;61664;48.112;11.662;2023-11-19T04:07:33;95273.31;;;10.49
34310;BMP280;61664;48.112;11.662;2023-11-19T04:10:01;95282.47;;;10.57
34310;BMP280;61664;48.112;11.662;2023-11-19T04:12:28;95278.03;;;10.54
34310;BMP280;61664;48.112;11.662;2023-11-19T04:14:55;95295.63;;;10.61
34310;BMP280;61664;48.112;11.662;2023-11-19T04:17:25;95290.00;;;10.59
34310;BMP280;61664;48.112;11.662;2023-11-19T04:19:52;95290.41;;;10.66
34310;BMP280;61664;48.112;11.662;2023-11-19T04:22:19;95286.53;;;10.67
34310;BMP280;61664;48.112;11.662;2023-11-19T04:24:46;95299.25;;;10.72
34310;BMP280;61664;48.112;11.662;2023-11-19T04:27:14;95299.81;;;10.76
34310;BMP280;61664;48.112;11.662;2023-11-19T04:29:41;95305.41;;;10.78
34310;BMP280;61664;48.112;11.662;2023-11-19T04:32:08;95300.34;;;10.80
34310;BMP280;61664;48.112;11.662;2023-11-19T04:34:35;95302.13;;;10.83
34310;BMP280;61664;48.112;11.662;2023-11-19T04:37:04;95298.44;;;10.81
34310;BMP280;61664;48.112;11.662;2023-11-19T04:39:34;95296.13;;;10.88
34310;BMP280;61664;48.112;11.662;2023-11-19T04:42:01;95299.25;;;10.87
34310;BMP280;61664;48.112;11.662;2023-11-19T04:44:28;95297.81;;;10.86
34310;BMP280;61664;48.112;11.662;2023-11-19T04:46:56;95295.31;;;10.97
34310;BMP280;61664;48.112;11.662;2023-11-19T04:49:24;95289.69;;;10.95
34310;BMP280;61664;48.112;11.662;2023-11-19T04:51:54;95294.66;;;11.02
34310;BMP280;61664;48.112;11.662;2023-11-19T04:54:21;95293.75;;;11.05
34310;BMP280;61664;48.112;11.662;2023-11-19T04:56:51;95296.06;;;11.12
34310;BMP280;61664;48.112;11.662;2023-11-19T04:59:17;95308.59;;;11.21
34310;BMP280;61664;48.112;11.662;2023-11-19T05:01:47;95305.25;;;11.26
34310;BMP280;61664;48.112;11.662;2023-11-19T05:04:15;95293.34;;;11.27
34310;BMP280;61664;48.112;11.662;2023-11-19T05:06:45;95302.03;;;11.37
34310;BMP280;61664;48.112;11.662;2023-11-19T05:09:12;95288.44;;;11.40
34310;BMP280;61664;48.112;11.662;2023-11-19T05:11:40;95297.56;;;11.48
34310;BMP280;61664;48.112;11.662;2023-11-19T05:14:10;95297.19;;;11.55
34310;BMP280;61664;48.112;11.662;2023-11-19T05:16:40;95316.38;;;11.69
34310;BMP280;61664;48.112;11.662;2023-11-19T05:19:07;95309.91;;;11.75
34310;BMP280;61664;48.112;11.662;2023-11-19T05:21:35;95302.59;;;11.76
34310;BMP280;61664;48.112;11.662;2023-11-19T05:24:03;95305.63;;;11.83
34310;BMP280;61664;48.112;11.662;2023-11-19T05:26:33;95313.72;;;11.89
34310;BMP280;61664;48.112;11.662;2023-11-19T05:28:59;95315.75;;;11.94
34310;BMP280;61664;48.112;11.662;2023-11-19T05:31:26;95324.38;;;12.04
34310;BMP280;61664;48.112;11.662;2023-11-19T05:33:53;95332.47;;;12.09
34310;BMP280;61664;48.112;11.662;2023-11-19T05:36:20;95319.38;;;12.11
34310;BMP280;61664;48.112;11.662;2023-11-19T05:38:47;95331.16;;;12.19
34310;BMP280;61664;48.112;11.662;2023-11-19T05:41:14;95321.84;;;12.15
34310;BMP280;61664;48.112;11.662;2023-11-19T05:43:41;95331.16;;;12.19
34310;BMP280;61664;48.112;11.662;2023-11-19T05:46:08;95318.69;;;12.16
34310;BMP280;61664;48.112;11.662;2023-11-19T05:48:38;95328.31;;;12.29
34310;BMP280;61664;48.112;11.662;2023-11-19T05:51:05;95332.78;;;12.32
34310;BMP280;61664;48.112;11.662;2023-11-19T05:53:32;95337.41;;;12.31
34310;BMP280;61664;48.112;11.662;2023-11-19T05:55:59;95337.19;;;12.35
34310;BMP280;61664;48.112;11.662;2023-11-19T05:58:30;95334.25;;;12.33
34310;BMP280;61664;48.112;11.662;2023-11-19T06:00:59;95328.44;;;12.34
34310;BMP280;61664;48.112;11.662;2023-11-19T06:03:28;95337.44;;;12.37
34310;BMP280;61664;48.112;11.662;2023-11-19T06:05:56;95333.81;;;12.40
34310;BMP280;61664;48.112;11.662;2023-11-19T06:08:23;95332.66;;;12.41
34310;BMP280;61664;48.112;11.662;2023-11-19T06:10:50;95322.38;;;12.39
34310;BMP280;61664;48.112;11.662;2023-11-19T06:13:18;95325.06;;;12.39
34310;BMP280;61664;48.112;11.662;2023-11-19T06:15:46;95315.75;;;12.35
34310;BMP280;61664;48.112;11.662;2023-11-19T06:18:13;95336.56;;;12.45
34310;BMP280;61664;48.112;11.662;2023-11-19T06:20:41;95343.38;;;12.41
34310;BMP280;61664;48.112;11.662;2023-11-19T06:23:09;95336.22;;;12.38
34310;BMP280;61664;48.112;11.662;2023-11-19T06:25:36;95341.41;;;12.41
34310;BMP280;61664;48.112;11.662;2023-11-19T06:28:04;95323.84;;;12.40
34310;BMP280;61664;48.112;11.662;2023-11-19T06:30:31;95332.22;;;12.48
34310;BMP280;61664;48.112;11.662;2023-11-19T06:32:59;95341.72;;;12.49
34310;BMP280;61664;48.112;11.662;2023-11-19T06:35:27;95334.22;;;12.53
34310;BMP280;61664;48.112;11.662;2023-11-19T06:37:56;95333.19;;;12.50
34310;BMP280;61664;48.112;11.662;2023-11-19T06:40:23;95336.91;;;12.53
34310;BMP280;61664;48.112;11.662;2023-11-19T06:42:50;95331.09;;;12.54
34310;BMP280;61664;48.112;11.662;2023-11-19T06:45:32;95333.25;;;12.56
34310;BMP280;61664;48.112;11.662;2023-11-19T06:48:03;95332.06;;;12.57
34310;BMP280;61664;48.112;11.662;2023-11-19T06:50:32;95343.13;;;12.65
34310;BMP280;61664;48.112;11.662;2023-11-19T06:52:59;95339.69;;;12.64
34310;BMP280;61664;48.112;11.662;2023-11-19T06:55:27;95333.38;;;12.62
34310;BMP280;61664;48.112;11.662;2023-11-19T06:57:54;95342.91;;;12.68
34310;BMP280;61664;48.112;11.662;2023-11-19T07:00:21;95359.81;;;12.74
34310;BMP280;61664;48.112;11.662;2023-11-19T07:02:48;95356.66;;;12.76
34310;BMP280;61664;48.112;11.662;2023-11-19T07:05:16;95354.72;;;12.76
34310;BMP280;61664;48.112;11.662;2023-11-19T07:07:43;95362.06;;;12.81
34310;BMP280;61664;48.112;11.662;2023-11-19T07:10:12;95358.44;;;12.84
34310;BMP280;61664;48.112;11.662;2023-11-19T07:12:39;95364.06;;;12.86
34310;BMP280;61664;48.112;11.662;2023-11-19T07:15:06;95365.28;;;12.85
34310;BMP280;61664;48.112;11.662;2023-11-19T07:17:34;95364.13;;;12.92
34310;BMP280;61664;48.112;11.662;2023-11-19T07:20:02;95361.88;;;12.90
34310;BMP280;61664;48.112;11.662;2023-11-19T07:22:30;95365.38;;;12.97
34310;BMP280;61664;48.112;11.662;2023-11-19T07:24:57;95361.97;;;12.96
34310;BMP280;61664;48.112;11.662;2023-11-19T07:27:24;95369.78;;;13.00
34310;BMP280;61664;48.112;11.662;2023-11-19T07:29:51;95370.31;;;13.04
34310;BMP280;61664;48.112;11.662;2023-11-19T07:32:18;95369.84;;;13.05
34310;BMP280;61664;48.112;11.662;2023-11-19T07:34:45;95377.19;;;13.10
34310;BMP280;61664;48.112;11.662;2023-11-19T07:37:15;95380.44;;;13.14
34310;BMP280;61664;48.112;11.662;2023-11-19T07:39:43;95376.78;;;13.17
34310;BMP280;61664;48.112;11.662;2023-11-19T07:42:10;95385.16;;;13.25
34310;BMP280;61664;48.112;11.662;2023-11-19T07:44:37;95387.63;;;13.29
34310;BMP280;61664;48.112;11.662;2023-11-19T07:47:04;95391.31;;;13.31
34310;BMP280;61664;48.112;11.662;2023-11-19T07:49:31;95393.78;;;13.35
34310;BMP280;61664;48.112;11.662;2023-11-19T07:51:59;95399.66;;;13.39
34310;BMP280;61664;48.112;11.662;2023-11-19T07:54:28;95402.63;;;13.41
34310;BMP280;61664;48.112;11.662;2023-11-19T07:56:55;95387.22;;;13.36
34310;BMP280;61664;48.112;11.662;2023-11-19T07:59:22;95398.22;;;13.43
34310;BMP280;61664;48.112;11.662;2023-11-19T08:01:49;95396.06;;;13.42
34310;BMP280;61664;48.112;11.662;2023-11-19T08:04:16;95394.34;;;13.44
34310;BMP280;61664;48.112;11.662;2023-11-19T08:06:43;95394.81;;;13.43
34310;BMP280;61664;48.112;11.662;2023-11-19T08:09:10;95405.84;;;13.50
34310;BMP280;61664;48.112;11.662;2023-11-19T08:11:43;95402.72;;;13.52
34310;BMP280;61664;48.112;11.662;2023-11-19T08:14:10;95398.56;;;13.51
34310;BMP280;61664;48.112;11.662;2023-11-19T08:16:39;95390.94;;;13.49
34310;BMP280;61664;48.112;11.662;2023-11-19T08:19:07;95403.28;;;13.62
34310;BMP280;61664;48.112;11.662;2023-11-19T08:21:35;95400.09;;;13.63
34310;BMP280;61664;48.112;11.662;2023-11-19T08:24:02;95395.72;;;13.66
34310;BMP280;61664;48.112;11.662;2023-11-19T08:26:30;95387.88;;;13.62
34310;BMP280;61664;48.112;11.662;2023-11-19T08:28:57;95400.41;;;13.71
34310;BMP280;61664;48.112;11.662;2023-11-19T08:31:27;95390.13;;;13.69
34310;BMP280;61664;48.112;11.662;2023-11-19T08:33:54;95401.69;;;13.81
34310;BMP280;61664;48.112;11.662;2023-11-19T08:36:21;95395.09;;;13.82
34310;BMP280;61664;48.112;11.662;2023-11-19T08:38:48;95398.53;;;13.82
34310;BMP280;61664;48.112;11.662;2023-11-19T08:41:16;95401.00;;;13.86
34310;BMP280;61664;48.112;11.662;2023-11-19T08:43:45;95408.56;;;13.87
34310;BMP280;61664;48.112;11.662;2023-11-19T08:46:12;95395.84;;;13.82
34310;BMP280;61664;48.112;11.662;2023-11-19T08:48:40;95398.34;;;13.91
34310;BMP280;61664;48.112;11.662;2023-11-19T08:51:07;95397.38;;;13.94
34310;BMP280;61664;48.112;11.662;2023-11-19T08:53:37;95394.72;;;14.00
34310;BMP280;61664;48.112;11.662;2023-11-19T08:56:04;95411.88;;;14.08
34310;BMP280;61664;48.112;11.662;2023-11-19T08:58:32;95402.88;;;14.11
34310;BMP280;61664;48.112;11.662;2023-11-19T09:00:59;95409.94;;;14.14
34310;BMP280;61664;48.112;11.662;2023-11-19T09:03:26;95402.88;;;14.11
34310;BMP280;61664;48.112;11.662;2023-11-19T09:05:53;95406.06;;;14.15
34310;BMP280;61664;48.112;11.662;2023-11-19T09:08:20;95397.22;;;14.09
34310;BMP280;61664;48.112;11.662;2023-11-19T09:10:47;95401.41;;;14.16
34310;BMP280;61664;48.112;11.662;2023-11-19T09:13:14;95388.72;;;14.11
34310;BMP280;61664;48.112;11.662;2023-11-19T09:15:41;95401.16;;;14.14
34310;BMP280;61664;48.112;11.662;2023-11-19T09:18:15;95403.84;;;14.19
34310;BMP280;61664;48.112;11.662;2023-11-19T09:20:42;95395.31;;;14.15
34310;BMP280;61664;48.112;11.662;2023-11-19T09:23:09;95417.31;;;14.25
34310;BMP280;61664;48.112;11.662;2023-11-19T09:25:36;95412.94;;;14.27
34310;BMP280;61664;48.112;11.662;2023-11-19T09:28:06;95417.09;;;14.23
34310;BMP280;61664;48.112;11.662;2023-11-19T09:30:35;95423.47;;;14.31
34310;BMP280;61664;48.112;11.662;2023-11-19T09:33:02;95420.56;;;14.35
34310;BMP280;61664;48.112;11.662;2023-11-19T09:35:30;95425.44;;;14.36
34310;BMP280;61664;48.112;11.662;2023-11-19T09:37:57;95423.53;;;14.42
34310;BMP280;61664;48.112;11.662;2023-11-19T09:43:12;95420.84;;;14.42
34310;BMP280;61664;48.112;11.662;2023-11-19T09:45:50;95416.47;;;14.50
34310;BMP280;61664;48.112;11.662;2023-11-19T09:48:18;95436.78;;;14.51
34310;BMP280;61664;48.112;11.662;2023-11-19T09:50:48;95423.78;;;14.50
34310;BMP280;61664;48.112;11.662;2023-11-19T09:53:15;95416.00;;;14.52
34310;BMP280;61664;48.112;11.662;2023-11-19T09:55:43;95417.47;;;14.53
34310;BMP280;61664;48.112;11.662;2023-11-19T09:58:13;95410.09;;;14.48
34310;BMP280;61664;48.112;11.662;2023-11-19T10:00:41;95408.44;;;14.56
34310;BMP280;61664;48.112;11.662;2023-11-19T10:03:11;95412.09;;;14.58
34310;BMP280;61664;48.112;11.662;2023-11-19T10:05:41;95408.44;;;14.61
34310;BMP280;61664;48.112;11.662;2023-11-19T10:08:08;95400.16;;;14.65
34310;BMP280;61664;48.112;11.662;2023-11-19T10:10:37;95387.94;;;14.70
34310;BMP280;61664;48.112;11.662;2023-11-19T10:13:05;95379.16;;;14.80
34310;BMP280;61664;48.112;11.662;2023-11-19T10:15:36;95389.97;;;14.91
34310;BMP280;61664;48.112;11.662;2023-11-19T10:18:04;95378.22;;;14.94
34310;BMP280;61664;48.112;11.662;2023-11-19T10:20:41;95370.16;;;14.94
34310;BMP280;61664;48.112;11.662;2023-11-19T10:23:09;95381.41;;;14.98
34310;BMP280;61664;48.112;11.662;2023-11-19T10:25:37;95369.19;;;15.03
34310;BMP280;61664;48.112;11.662;2023-11-19T10:28:04;95374.81;;;15.05
34310;BMP280;61664;48.112;11.662;2023-11-19T10:30:31;95368.44;;;15.02
34310;BMP280;61664;48.112;11.662;2023-11-19T10:33:22;95370.41;;;15.19
34310;BMP280;61664;48.112;11.662;2023-11-19T10:35:54;95375.06;;;15.35
34310;BMP280;61664;48.112;11.662;2023-11-19T10:38:26;95371.13;;;15.47
34310;BMP280;61664;48.112;11.662;2023-11-19T10:40:54;95366.75;;;15.55
34310;BMP280;61664;48.112;11.662;2023-11-19T10:43:22;95360.34;;;15.58
34310;BMP280;61664;48.112;11.662;2023-11-19T10:45:50;95358.66;;;15.61
34310;BMP280;61664;48.112;11.662;2023-11-19T10:48:18;95351.78;;;15.71
34310;BMP280;61664;48.112;11.662;2023-11-19T10:50:49;95345.59;;;15.87
34310;BMP280;61664;48.112;11.662;2023-11-19T10:53:20;95340.91;;;16.04
34310;BMP280;61664;48.112;11.662;2023-11-19T10:55:50;95345.03;;;16.22
34310;BMP280;61664;48.112;11.662;2023-11-19T10:58:18;95351.34;;;16.30
34310;BMP280;61664;48.112;11.662;2023-11-19T11:00:48;95339.06;;;16.29
34310;BMP280;61664;48.112;11.662;2023-11-19T11:03:20;95347.16;;;16.29
34310;BMP280;61664;48.112;11.662;2023-11-19T11:05:49;95345.69;;;16.28
34310;BMP280;61664;48.112;11.662;2023-11-19T11:08:18;95328.31;;;16.24
34310;BMP280;61664;48.112;11.662;2023-11-19T11:10:55;95335.16;;;16.30
34310;BMP280;61664;48.112;11.662;2023-11-19T11:13:25;95334.41;;;16.30
34310;BMP280;61664;48.112;11.662;2023-11-19T11:15:57;95310.78;;;16.06
34310;BMP280;61664;48.112;11.662;2023-11-19T11:18:27;95324.44;;;16.14
34310;BMP280;61664;48.112;11.662;2023-11-19T11:21:09;95329.09;;;16.13
34310;BMP280;61664;48.112;11.662;2023-11-19T11:30:06;95328.63;;;16.15
34310;BMP280;61664;48.112;11.662;2023-11-19T11:32:51;95330.09;;;16.10
34310;BMP280;61664;48.112;11.662;2023-11-19T11:38:08;95315.88;;;16.09
34310;BMP280;61664;48.112;11.662;2023-11-19T11:40:35;95321.75;;;16.08
34310;BMP280;61664;48.112;11.662;2023-11-19T11:43:43;95305.59;;;16.14
34310;BMP280;61664;48.112;11.662;2023-11-19T11:46:53;95311.44;;;16.18
34310;BMP280;61664;48.112;11.662;2023-11-19T11:49:28;95304.13;;;16.13
34310;BMP280;61664;48.112;11.662;2023-11-19T11:57:11;95303.06;;;16.27
34310;BMP280;61664;48.112;11.662;2023-11-19T11:59:46;95309.88;;;16.33
34310;BMP280;61664;48.112;11.662;2023-11-19T12:02:20;95290.31;;;16.33
34310;BMP280;61664;48.112;11.662;2023-11-19T12:04:52;95309.81;;;16.44
34310;BMP280;61664;48.112;11.662;2023-11-19T12:07:22;95315.00;;;16.42
34310;BMP280;61664;48.112;11.662;2023-11-19T12:10:06;95309.41;;;16.35
34310;BMP280;61664;48.112;11.662;2023-11-19T12:12:35;95303.50;;;16.36
34310;BMP280;61664;48.112;11.662;2023-11-19T12:15:09;95306.91;;;16.42
34310;BMP280;61664;48.112;11.662;2023-11-19T12:17:48;95304.38;;;16.56
34310;BMP280;61664;48.112;11.662;2023-11-19T12:20:24;95308.09;;;16.53
34310;BMP280;61664;48.112;11.662;2023-11-19T12:22:55;95319.28;;;16.62
34310;BMP280;61664;48.112;11.662;2023-11-19T12:25:22;95308.47;;;16.68
34310;BMP280;61664;48.112;11.662;2023-11-19T12:27:51;95307.81;;;16.86
34310;BMP280;61664;48.112;11.662;2023-11-19T12:30:24;95299.47;;;16.90
34310;BMP280;61664;48.112;11.662;2023-11-19T12:32:53;95304.13;;;16.89
34310;BMP280;61664;48.112;11.662;2023-11-19T12:35:23;95299.72;;;16.86
34310;BMP280;61664;48.112;11.662;2023-11-19T12:37:51;95298.50;;;16.87
34310;BMP280;61664;48.112;11.662;2023-11-19T12:40:32;95288.19;;;16.91
34310;BMP280;61664;48.112;11.662;2023-11-19T12:43:00;95278.38;;;16.88
34310;BMP280;61664;48.112;11.662;2023-11-19T12:45:36;95275.53;;;16.75
34310;BMP280;61664;48.112;11.662;2023-11-19T12:48:10;95279.50;;;16.74
34310;BMP280;61664;48.112;11.662;2023-11-19T12:53:27;95268.97;;;16.70
34310;BMP280;61664;48.112;11.662;2023-11-19T12:55:55;95275.53;;;16.75
34310;BMP280;61664;48.112;11.662;2023-11-19T12:58:32;95273.44;;;16.92
34310;BMP280;61664;48.112;11.662;2023-11-19T13:01:06;95279.44;;;17.09
34310;BMP280;61664;48.112;11.662;2023-11-19T13:03:36;95270.31;;;17.12
34310;BMP280;61664;48.112;11.662;2023-11-19T13:06:10;95281.75;;;17.24
34310;BMP280;61664;48.112;11.662;2023-11-19T13:08:43;95275.78;;;17.31
34310;BMP280;61664;48.112;11.662;2023-11-19T13:14:02;95276.91;;;17.41
34310;BMP280;61664;48.112;11.662;2023-11-19T13:16:37;95285.19;;;17.49
34310;BMP280;61664;48.112;11.662;2023-11-19T13:19:05;95275.59;;;17.48
34310;BMP280;61664;48.112;11.662;2023-11-19T13:21:32;95244.84;;;17.32
34310;BMP280;61664;48.112;11.662;2023-11-19T13:24:00;95271.06;;;17.37
34310;BMP280;61664;48.112;11.662;2023-11-19T13:26:27;95274.81;;;17.29
34310;BMP280;61664;48.112;11.662;2023-11-19T13:28:54;95270.66;;;17.28
34310;BMP280;61664;48.112;11.662;2023-11-19T13:31:21;95275.63;;;17.24
34310;BMP280;61664;48.112;11.662;2023-11-19T13:33:49;95265.38;;;17.16
34310;BMP280;61664;48.112;11.662;2023-11-19T13:36:16;95254.81;;;17.18
34310;BMP280;61664;48.112;11.662;2023-11-19T13:38:43;95248.00;;;17.12
34310;BMP280;61664;48.112;11.662;2023-11-19T13:41:14;95247.44;;;17.19
34310;BMP280;61664;48.112;11.662;2023-11-19T13:43:41;95255.03;;;17.20
34310;BMP280;61664;48.112;11.662;2023-11-19T13:46:08;95262.41;;;17.20
34310;BMP280;61664;48.112;11.662;2023-11-19T13:48:38;95261.44;;;17.17
34310;BMP280;61664;48.112;11.662;2023-11-19T13:51:06;95251.19;;;17.10
34310;BMP280;61664;48.112;11.662;2023-11-19T13:53:33;95239.16;;;17.11
34310;BMP280;61664;48.112;11.662;2023-11-19T13:56:18;95262.00;;;17.10
34310;BMP280;61664;48.112;11.662;2023-11-19T13:58:45;95247.84;;;17.04
34310;BMP280;61664;48.112;11.662;2023-11-19T14:01:12;95245.16;;;16.99
34310;BMP280;61664;48.112;11.662;2023-11-19T14:03:40;95244.22;;;16.96
34310;BMP280;61664;48.112;11.662;2023-11-19T14:06:08;95237.63;;;16.92
34310;BMP280;61664;48.112;11.662;2023-11-19T14:08:36;95238.81;;;16.96
34310;BMP280;61664;48.112;11.662;2023-11-19T14:11:03;95225.88;;;16.89
34310;BMP280;61664;48.112;11.662;2023-11-19T14:13:30;95226.34;;;16.93
34310;BMP280;61664;48.112;11.662;2023-11-19T14:15:57;95231.00;;;16.93
34310;BMP280;61664;48.112;11.662;2023-11-19T14:18:24;95231.00;;;16.93
34310;BMP280;61664;48.112;11.662;2023-11-19T14:20:53;95230.78;;;16.91
34310;BMP280;61664;48.112;11.662;2023-11-19T14:23:21;95214.19;;;16.81
34310;BMP280;61664;48.112;11.662;2023-11-19T14:25:48;95233.25;;;16.89
34310;BMP280;61664;48.112;11.662;2023-11-19T14:28:16;95232.97;;;16.92
34310;BMP280;61664;48.112;11.662;2023-11-19T14:30:43;95220.03;;;16.85
34310;BMP280;61664;48.112;11.662;2023-11-19T14:33:11;95223.97;;;16.84